sensor_id;sensor_type;location;lat;lon;timestamp;temperature;humidity
24384;DHT22;12504;52.870;8.798;2022-09-09T00:00:38;13.20;99.90
24384;DHT22;12504;52.870;8.798;2022-09-09T00:03:14;13.20;99.90
24384;DHT22;12504;52.870;8.798;2022-09-09T00:06:03;13.20;99.90
24384;DHT22;12504;52.870;8.798;2022-09-09T00:11:35;13.20;99.90
24384;DHT22;12504;52.870;8.798;2022-09-09T00:14:04;13.30;99.90
24384;DHT22;12504;52.870;8.798;2022-09-09T00:16:36;13.20;99.90
24384;DHT22;12504;52.870;8.798;2022-09-09T00:22:07;13.40;99.90
24384;DHT22;12504;52.870;8.798;2022-09-09T00:27:29;13.40;99.90
24384;DHT22;12504;52.870;8.798;2022-09-09T00:30:11;13.50;99.90
24384;DHT22;12504;52.870;8.798;2022-09-09T00:32:38;13.50;99.90
24384;DHT22;12504;52.870;8.798;2022-09-09T00:35:58;13.40;99.90
24384;DHT22;12504;52.870;8.798;2022-09-09T00:38:33;13.40;99.90
24384;DHT22;12504;52.870;8.798;2022-09-09T00:41:46;13.30;99.90
24384;DHT22;12504;52.870;8.798;2022-09-09T00:54:56;13.10;99.90
24384;DHT22;12504;52.870;8.798;2022-09-09T00:57:33;13.00;99.90
24384;DHT22;12504;52.870;8.798;2022-09-09T01:05:27;13.00;99.90
24384;DHT22;12504;52.870;8.798;2022-09-09T01:07:58;12.90;99.90
24384;DHT22;12504;52.870;8.798;2022-09-09T01:10:39;12.90;99.90
24384;DHT22;12504;52.870;8.798;2022-09-09T01:13:22;12.90;99.90
24384;DHT22;12504;52.870;8.798;2022-09-09T01:15:50;12.90;99.90
24384;DHT22;12504;52.870;8.798;2022-09-09T01:18:23;12.90;99.90
24384;DHT22;12504;52.870;8.798;2022-09-09T01:26:45;12.90;99.90
24384;DHT22;12504;52.870;8.798;2022-09-09T01:29:21;12.90;99.90
24384;DHT22;12504;52.870;8.798;2022-09-09T01:34:56;12.80;99.90
24384;DHT22;12504;52.870;8.798;2022-09-09T01:37:23;12.80;99.90
24384;DHT22;12504;52.870;8.798;2022-09-09T01:39:48;12.80;99.90
24384;DHT22;12504;52.870;8.798;2022-09-09T01:42:16;12.70;99.90
24384;DHT22;12504;52.870;8.798;2022-09-09T01:44:43;12.70;99.90
24384;DHT22;12504;52.870;8.798;2022-09-09T01:47:09;12.80;99.90
24384;DHT22;12504;52.870;8.798;2022-09-09T01:49:48;12.70;99.90
24384;DHT22;12504;52.870;8.798;2022-09-09T01:52:21;12.70;99.90
24384;DHT22;12504;52.870;8.798;2022-09-09T01:54:47;12.70;99.90
24384;DHT22;12504;52.870;8.798;2022-09-09T02:00:05;12.70;99.90
24384;DHT22;12504;52.870;8.798;2022-09-09T02:05:40;12.70;99.90
24384;DHT22;12504;52.870;8.798;2022-09-09T02:11:30;12.60;99.90
24384;DHT22;12504;52.870;8.798;2022-09-09T02:14:08;12.60;99.90
24384;DHT22;12504;52.870;8.798;2022-09-09T02:16:46;12.60;99.90
24384;DHT22;12504;52.870;8.798;2022-09-09T02:22:06;12.50;99.90
24384;DHT22;12504;52.870;8.798;2022-09-09T02:24:37;12.50;99.90
24384;DHT22;12504;52.870;8.798;2022-09-09T02:27:17;12.50;99.90
24384;DHT22;12504;52.870;8.798;2022-09-09T02:29:45;12.40;99.90
24384;DHT22;12504;52.870;8.798;2022-09-09T02:32:23;12.40;99.90
24384;DHT22;12504;52.870;8.798;2022-09-09T02:34:54;12.40;99.90
24384;DHT22;12504;52.870;8.798;2022-09-09T02:37:24;12.40;99.90
24384;DHT22;12504;52.870;8.798;2022-09-09T02:39:55;12.40;99.90
24384;DHT22;12504;52.870;8.798;2022-09-09T02:42:21;12.40;99.90
24384;DHT22;12504;52.870;8.798;2022-09-09T02:44:49;12.50;99.90
24384;DHT22;12504;52.870;8.798;2022-09-09T02:55:48;12.60;99.90
24384;DHT22;12504;52.870;8.798;2022-09-09T02:58:18;12.70;99.90
24384;DHT22;12504;52.870;8.798;2022-09-09T03:00:53;12.70;99.90
24384;DHT22;12504;52.870;8.798;2022-09-09T03:03:19;12.80;99.90
24384;DHT22;12504;52.870;8.798;2022-09-09T03:05:48;12.80;99.90
24384;DHT22;12504;52.870;8.798;2022-09-09T03:08:13;13.00;99.90
24384;DHT22;12504;52.870;8.798;2022-09-09T03:10:41;13.10;99.90
24384;DHT22;12504;52.870;8.798;2022-09-09T03:13:07;13.10;99.90
24384;DHT22;12504;52.870;8.798;2022-09-09T03:15:37;13.20;99.90
24384;DHT22;12504;52.870;8.798;2022-09-09T03:18:05;13.40;99.90
24384;DHT22;12504;52.870;8.798;2022-09-09T03:20:32;13.40;99.90
24384;DHT22;12504;52.870;8.798;2022-09-09T03:22:59;13.40;99.90
24384;DHT22;12504;52.870;8.798;2022-09-09T03:25:26;13.50;99.90
24384;DHT22;12504;52.870;8.798;2022-09-09T03:27:54;13.50;99.90
24384;DHT22;12504;52.870;8.798;2022-09-09T03:30:24;13.50;99.90
24384;DHT22;12504;52.870;8.798;2022-09-09T03:32:51;13.60;99.90
24384;DHT22;12504;52.870;8.798;2022-09-09T03:35:17;13.60;99.90
24384;DHT22;12504;52.870;8.798;2022-09-09T03:37:43;13.60;99.90
24384;DHT22;12504;52.870;8.798;2022-09-09T03:40:11;13.60;99.90
24384;DHT22;12504;52.870;8.798;2022-09-09T03:42:37;13.70;99.90
24384;DHT22;12504;52.870;8.798;2022-09-09T03:45:05;13.70;99.90
24384;DHT22;12504;52.870;8.798;2022-09-09T03:47:32;13.70;99.90
24384;DHT22;12504;52.870;8.798;2022-09-09T03:50:05;13.70;99.90
24384;DHT22;12504;52.870;8.798;2022-09-09T03:52:38;13.80;99.90
24384;DHT22;12504;52.870;8.798;2022-09-09T03:55:08;13.80;99.90
24384;DHT22;12504;52.870;8.798;2022-09-09T03:57:35;13.70;99.90
24384;DHT22;12504;52.870;8.798;2022-09-09T04:00:05;13.70;99.90
24384;DHT22;12504;52.870;8.798;2022-09-09T04:02:41;13.70;99.90
24384;DHT22;12504;52.870;8.798;2022-09-09T04:05:10;13.80;99.90
24384;DHT22;12504;52.870;8.798;2022-09-09T04:07:38;13.70;99.90
24384;DHT22;12504;52.870;8.798;2022-09-09T04:10:04;13.80;99.90
24384;DHT22;12504;52.870;8.798;2022-09-09T04:12:30;13.70;99.90
24384;DHT22;12504;52.870;8.798;2022-09-09T04:14:56;13.70;99.90
24384;DHT22;12504;52.870;8.798;2022-09-09T04:17:22;13.70;99.90
24384;DHT22;12504;52.870;8.798;2022-09-09T04:19:48;13.70;99.90
24384;DHT22;12504;52.870;8.798;2022-09-09T04:22:14;13.70;99.90
24384;DHT22;12504;52.870;8.798;2022-09-09T04:24:39;13.60;99.90
24384;DHT22;12504;52.870;8.798;2022-09-09T04:27:06;13.60;99.90
24384;DHT22;12504;52.870;8.798;2022-09-09T04:29:34;13.50;99.90
24384;DHT22;12504;52.870;8.798;2022-09-09T04:32:00;13.40;99.90
24384;DHT22;12504;52.870;8.798;2022-09-09T04:34:26;13.30;99.90
24384;DHT22;12504;52.870;8.798;2022-09-09T04:36:52;13.20;99.90
24384;DHT22;12504;52.870;8.798;2022-09-09T04:39:18;13.20;99.90
24384;DHT22;12504;52.870;8.798;2022-09-09T04:41:45;13.20;99.90
24384;DHT22;12504;52.870;8.798;2022-09-09T04:44:10;13.30;99.90
24384;DHT22;12504;52.870;8.798;2022-09-09T04:46:36;13.30;99.90
24384;DHT22;12504;52.870;8.798;2022-09-09T04:49:03;13.30;99.90
24384;DHT22;12504;52.870;8.798;2022-09-09T04:51:30;13.30;99.90
24384;DHT22;12504;52.870;8.798;2022-09-09T04:53:56;13.30;99.90
24384;DHT22;12504;52.870;8.798;2022-09-09T04:56:22;13.30;99.90
24384;DHT22;12504;52.870;8.798;2022-09-09T04:58:51;13.30;99.90
24384;DHT22;12504;52.870;8.798;2022-09-09T05:01:21;13.30;99.90
24384;DHT22;12504;52.870;8.798;2022-09-09T05:03:49;13.30;99.90
24384;DHT22;12504;52.870;8.798;2022-09-09T05:06:20;13.30;99.90
24384;DHT22;12504;52.870;8.798;2022-09-09T05:08:48;13.20;99.90
24384;DHT22;12504;52.870;8.798;2022-09-09T05:11:24;13.20;99.90
24384;DHT22;12504;52.870;8.798;2022-09-09T05:13:52;13.20;99.90
24384;DHT22;12504;52.870;8.798;2022-09-09T05:16:19;13.20;99.90
24384;DHT22;12504;52.870;8.798;2022-09-09T05:18:46;13.20;99.90
24384;DHT22;12504;52.870;8.798;2022-09-09T05:21:13;13.20;99.90
24384;DHT22;12504;52.870;8.798;2022-09-09T05:23:40;13.20;99.90
24384;DHT22;12504;52.870;8.798;2022-09-09T05:26:09;13.30;99.90
24384;DHT22;12504;52.870;8.798;2022-09-09T05:28:37;13.30;99.90
24384;DHT22;12504;52.870;8.798;2022-09-09T05:31:05;13.40;99.90
24384;DHT22;12504;52.870;8.798;2022-09-09T05:33:34;13.30;99.90
24384;DHT22;12504;52.870;8.798;2022-09-09T05:36:05;13.40;99.90
24384;DHT22;12504;52.870;8.798;2022-09-09T05:38:32;13.40;99.90
24384;DHT22;12504;52.870;8.798;2022-09-09T05:41:02;13.40;99.90
24384;DHT22;12504;52.870;8.798;2022-09-09T05:43:29;13.40;99.90
24384;DHT22;12504;52.870;8.798;2022-09-09T05:46:01;13.40;99.90
24384;DHT22;12504;52.870;8.798;2022-09-09T05:48:32;13.50;99.90
24384;DHT22;12504;52.870;8.798;2022-09-09T05:50:59;13.80;99.90
24384;DHT22;12504;52.870;8.798;2022-09-09T05:53:25;14.20;99.90
24384;DHT22;12504;52.870;8.798;2022-09-09T05:56:02;14.60;99.90
24384;DHT22;12504;52.870;8.798;2022-09-09T05:58:31;14.70;99.90
24384;DHT22;12504;52.870;8.798;2022-09-09T06:01:09;14.70;99.90
24384;DHT22;12504;52.870;8.798;2022-09-09T06:03:37;14.50;99.90
24384;DHT22;12504;52.870;8.798;2022-09-09T06:06:06;14.50;99.90
24384;DHT22;12504;52.870;8.798;2022-09-09T06:08:34;14.50;99.90
24384;DHT22;12504;52.870;8.798;2022-09-09T06:13:37;14.40;99.90
24384;DHT22;12504;52.870;8.798;2022-09-09T06:16:13;14.50;99.90
24384;DHT22;12504;52.870;8.798;2022-09-09T06:18:41;14.50;99.90
24384;DHT22;12504;52.870;8.798;2022-09-09T06:21:18;14.60;99.90
24384;DHT22;12504;52.870;8.798;2022-09-09T06:23:46;14.70;99.90
24384;DHT22;12504;52.870;8.798;2022-09-09T06:26:19;14.80;99.90
24384;DHT22;12504;52.870;8.798;2022-09-09T06:28:48;14.80;99.90
24384;DHT22;12504;52.870;8.798;2022-09-09T06:31:17;14.90;99.90
24384;DHT22;12504;52.870;8.798;2022-09-09T06:33:43;15.00;99.90
24384;DHT22;12504;52.870;8.798;2022-09-09T06:36:13;15.00;99.90
24384;DHT22;12504;52.870;8.798;2022-09-09T06:38:39;15.10;99.90
24384;DHT22;12504;52.870;8.798;2022-09-09T06:41:05;15.10;99.90
24384;DHT22;12504;52.870;8.798;2022-09-09T06:43:32;15.10;99.90
24384;DHT22;12504;52.870;8.798;2022-09-09T06:46:11;15.20;99.90
24384;DHT22;12504;52.870;8.798;2022-09-09T06:48:42;15.10;99.90
24384;DHT22;12504;52.870;8.798;2022-09-09T06:53:45;15.10;99.90
24384;DHT22;12504;52.870;8.798;2022-09-09T06:56:23;15.20;99.90
24384;DHT22;12504;52.870;8.798;2022-09-09T06:58:52;15.20;99.90
24384;DHT22;12504;52.870;8.798;2022-09-09T07:01:27;15.30;99.90
24384;DHT22;12504;52.870;8.798;2022-09-09T07:03:56;15.30;99.90
24384;DHT22;12504;52.870;8.798;2022-09-09T07:06:27;15.40;99.90
24384;DHT22;12504;52.870;8.798;2022-09-09T07:08:55;15.50;99.90
24384;DHT22;12504;52.870;8.798;2022-09-09T07:11:26;15.50;99.90
24384;DHT22;12504;52.870;8.798;2022-09-09T07:13:53;15.60;99.90
24384;DHT22;12504;52.870;8.798;2022-09-09T07:16:21;15.70;99.90
24384;DHT22;12504;52.870;8.798;2022-09-09T07:18:49;15.70;99.90
24384;DHT22;12504;52.870;8.798;2022-09-09T07:21:17;15.80;99.90
24384;DHT22;12504;52.870;8.798;2022-09-09T07:23:43;15.90;99.90
24384;DHT22;12504;52.870;8.798;2022-09-09T07:26:17;16.00;99.90
24384;DHT22;12504;52.870;8.798;2022-09-09T07:28:45;16.10;99.90
24384;DHT22;12504;52.870;8.798;2022-09-09T07:31:19;16.10;99.90
24384;DHT22;12504;52.870;8.798;2022-09-09T07:33:47;16.20;99.90
24384;DHT22;12504;52.870;8.798;2022-09-09T07:36:16;16.20;99.90
24384;DHT22;12504;52.870;8.798;2022-09-09T07:38:45;16.30;99.90
24384;DHT22;12504;52.870;8.798;2022-09-09T07:41:19;16.30;99.90
24384;DHT22;12504;52.870;8.798;2022-09-09T07:43:47;16.40;99.90
24384;DHT22;12504;52.870;8.798;2022-09-09T07:46:15;16.40;99.90
24384;DHT22;12504;52.870;8.798;2022-09-09T07:48:48;16.50;99.90
24384;DHT22;12504;52.870;8.798;2022-09-09T07:51:24;16.50;99.90
24384;DHT22;12504;52.870;8.798;2022-09-09T07:53:56;16.60;99.90
24384;DHT22;12504;52.870;8.798;2022-09-09T07:56:24;16.60;99.90
24384;DHT22;12504;52.870;8.798;2022-09-09T07:58:52;16.70;99.90
24384;DHT22;12504;52.870;8.798;2022-09-09T08:01:20;16.80;99.90
24384;DHT22;12504;52.870;8.798;2022-09-09T08:03:56;16.90;99.90
24384;DHT22;12504;52.870;8.798;2022-09-09T08:06:26;16.90;99.90
24384;DHT22;12504;52.870;8.798;2022-09-09T08:08:53;17.00;99.90
24384;DHT22;12504;52.870;8.798;2022-09-09T08:11:21;17.00;99.90
24384;DHT22;12504;52.870;8.798;2022-09-09T08:13:49;17.10;99.90
24384;DHT22;12504;52.870;8.798;2022-09-09T08:16:18;17.20;99.90
24384;DHT22;12504;52.870;8.798;2022-09-09T08:18:47;17.30;99.90
24384;DHT22;12504;52.870;8.798;2022-09-09T08:21:26;17.40;99.90
24384;DHT22;12504;52.870;8.798;2022-09-09T08:23:56;17.50;99.90
24384;DHT22;12504;52.870;8.798;2022-09-09T08:26:24;17.60;99.90
24384;DHT22;12504;52.870;8.798;2022-09-09T08:28:52;17.70;99.90
24384;DHT22;12504;52.870;8.798;2022-09-09T08:31:25;17.70;99.90
24384;DHT22;12504;52.870;8.798;2022-09-09T08:33:51;17.90;99.90
24384;DHT22;12504;52.870;8.798;2022-09-09T08:36:23;18.10;99.90
24384;DHT22;12504;52.870;8.798;2022-09-09T08:38:50;18.10;99.90
24384;DHT22;12504;52.870;8.798;2022-09-09T08:50:19;18.30;99.90
24384;DHT22;12504;52.870;8.798;2022-09-09T08:53:02;18.30;99.90
24384;DHT22;12504;52.870;8.798;2022-09-09T08:55:35;18.30;99.90
24384;DHT22;12504;52.870;8.798;2022-09-09T08:58:19;18.20;99.90
24384;DHT22;12504;52.870;8.798;2022-09-09T09:12:40;18.00;99.90
24384;DHT22;12504;52.870;8.798;2022-09-09T09:15:22;18.00;99.90
24384;DHT22;12504;52.870;8.798;2022-09-09T09:17:50;18.00;99.90
24384;DHT22;12504;52.870;8.798;2022-09-09T09:20:21;18.10;99.90
24384;DHT22;12504;52.870;8.798;2022-09-09T09:22:51;18.10;99.90
24384;DHT22;12504;52.870;8.798;2022-09-09T09:28:13;18.30;99.90
24384;DHT22;12504;52.870;8.798;2022-09-09T09:30:59;18.40;99.90
24384;DHT22;12504;52.870;8.798;2022-09-09T09:33:49;18.40;99.90
24384;DHT22;12504;52.870;8.798;2022-09-09T09:36:17;18.40;99.90
24384;DHT22;12504;52.870;8.798;2022-09-09T09:38:55;18.50;99.90
24384;DHT22;12504;52.870;8.798;2022-09-09T09:41:42;18.50;99.90
24384;DHT22;12504;52.870;8.798;2022-09-09T09:44:28;18.70;99.90
24384;DHT22;12504;52.870;8.798;2022-09-09T09:47:13;18.90;99.90
24384;DHT22;12504;52.870;8.798;2022-09-09T09:49:56;19.00;99.90
24384;DHT22;12504;52.870;8.798;2022-09-09T09:52:26;19.10;99.90
24384;DHT22;12504;52.870;8.798;2022-09-09T09:54:56;19.10;99.90
24384;DHT22;12504;52.870;8.798;2022-09-09T09:57:31;19.40;99.90
24384;DHT22;12504;52.870;8.798;2022-09-09T10:00:13;19.70;99.90
24384;DHT22;12504;52.870;8.798;2022-09-09T10:02:48;20.20;99.90
24384;DHT22;12504;52.870;8.798;2022-09-09T10:05:26;20.40;99.90
24384;DHT22;12504;52.870;8.798;2022-09-09T10:08:12;20.50;99.90
24384;DHT22;12504;52.870;8.798;2022-09-09T10:14:20;20.70;99.90
24384;DHT22;12504;52.870;8.798;2022-09-09T10:20:12;20.60;99.90
24384;DHT22;12504;52.870;8.798;2022-09-09T10:22:47;20.60;99.90
24384;DHT22;12504;52.870;8.798;2022-09-09T10:25:27;20.50;99.90
24384;DHT22;12504;52.870;8.798;2022-09-09T10:31:25;20.60;99.90
24384;DHT22;12504;52.870;8.798;2022-09-09T10:36:49;20.70;99.90
24384;DHT22;12504;52.870;8.798;2022-09-09T10:39:33;20.50;99.90
24384;DHT22;12504;52.870;8.798;2022-09-09T10:42:08;20.30;99.90
24384;DHT22;12504;52.870;8.798;2022-09-09T10:55:22;19.20;99.90
24384;DHT22;12504;52.870;8.798;2022-09-09T10:57:52;19.30;99.90
24384;DHT22;12504;52.870;8.798;2022-09-09T11:03:03;20.20;99.90
24384;DHT22;12504;52.870;8.798;2022-09-09T11:05:43;20.50;99.90
24384;DHT22;12504;52.870;8.798;2022-09-09T11:08:23;20.50;99.90
24384;DHT22;12504;52.870;8.798;2022-09-09T11:11:09;20.60;99.90
24384;DHT22;12504;52.870;8.798;2022-09-09T11:16:29;20.40;99.90
24384;DHT22;12504;52.870;8.798;2022-09-09T11:21:47;20.10;99.90
24384;DHT22;12504;52.870;8.798;2022-09-09T11:26:52;20.00;99.90
24384;DHT22;12504;52.870;8.798;2022-09-09T11:29:34;19.90;99.90
24384;DHT22;12504;52.870;8.798;2022-09-09T11:32:34;19.90;99.90
24384;DHT22;12504;52.870;8.798;2022-09-09T11:38:16;19.60;99.90
24384;DHT22;12504;52.870;8.798;2022-09-09T11:40:44;19.50;99.90
24384;DHT22;12504;52.870;8.798;2022-09-09T11:43:17;19.50;99.90
24384;DHT22;12504;52.870;8.798;2022-09-09T11:45:53;19.50;99.90
24384;DHT22;12504;52.870;8.798;2022-09-09T11:48:41;19.50;99.90
24384;DHT22;12504;52.870;8.798;2022-09-09T11:51:12;19.50;99.90
24384;DHT22;12504;52.870;8.798;2022-09-09T11:56:42;19.60;99.90
24384;DHT22;12504;52.870;8.798;2022-09-09T11:59:21;19.60;99.90
24384;DHT22;12504;52.870;8.798;2022-09-09T12:02:02;19.70;99.90
24384;DHT22;12504;52.870;8.798;2022-09-09T12:04:28;19.50;99.90
24384;DHT22;12504;52.870;8.798;2022-09-09T12:09:49;18.80;99.90
24384;DHT22;12504;52.870;8.798;2022-09-09T12:12:31;18.60;99.90
24384;DHT22;12504;52.870;8.798;2022-09-09T12:17:28;18.60;99.90
24384;DHT22;12504;52.870;8.798;2022-09-09T12:33:45;19.90;99.90
24384;DHT22;12504;52.870;8.798;2022-09-09T12:36:19;20.30;99.90
24384;DHT22;12504;52.870;8.798;2022-09-09T12:38:47;20.80;99.90
24384;DHT22;12504;52.870;8.798;2022-09-09T12:41:22;21.20;99.90
24384;DHT22;12504;52.870;8.798;2022-09-09T12:43:49;21.70;99.90
24384;DHT22;12504;52.870;8.798;2022-09-09T12:46:39;22.10;99.90
24384;DHT22;12504;52.870;8.798;2022-09-09T12:49:18;22.20;78.40
24384;DHT22;12504;52.870;8.798;2022-09-09T12:51:46;21.80;98.20
24384;DHT22;12504;52.870;8.798;2022-09-09T12:54:13;21.20;99.90
24384;DHT22;12504;52.870;8.798;2022-09-09T12:56:46;20.80;99.90
24384;DHT22;12504;52.870;8.798;2022-09-09T12:59:24;20.50;99.90
24384;DHT22;12504;52.870;8.798;2022-09-09T13:01:57;20.40;99.90
24384;DHT22;12504;52.870;8.798;2022-09-09T13:04:23;20.20;99.90
24384;DHT22;12504;52.870;8.798;2022-09-09T13:06:49;20.10;99.90
24384;DHT22;12504;52.870;8.798;2022-09-09T13:09:15;20.00;99.90
24384;DHT22;12504;52.870;8.798;2022-09-09T13:11:49;19.90;99.90
24384;DHT22;12504;52.870;8.798;2022-09-09T13:14:28;19.80;99.90
24384;DHT22;12504;52.870;8.798;2022-09-09T13:16:57;19.50;99.90
24384;DHT22;12504;52.870;8.798;2022-09-09T13:19:24;19.10;99.90
24384;DHT22;12504;52.870;8.798;2022-09-09T13:21:54;18.70;99.90
24384;DHT22;12504;52.870;8.798;2022-09-09T13:24:28;18.40;99.90
24384;DHT22;12504;52.870;8.798;2022-09-09T13:27:00;18.00;99.90
24384;DHT22;12504;52.870;8.798;2022-09-09T13:29:30;17.80;99.90
24384;DHT22;12504;52.870;8.798;2022-09-09T13:32:07;17.60;99.90
24384;DHT22;12504;52.870;8.798;2022-09-09T13:34:38;17.50;99.90
24384;DHT22;12504;52.870;8.798;2022-09-09T13:37:05;17.30;99.90
24384;DHT22;12504;52.870;8.798;2022-09-09T13:39:36;17.10;99.90
24384;DHT22;12504;52.870;8.798;2022-09-09T13:42:03;17.00;99.90
24384;DHT22;12504;52.870;8.798;2022-09-09T13:44:34;16.90;99.90
24384;DHT22;12504;52.870;8.798;2022-09-09T13:47:06;16.70;99.90
24384;DHT22;12504;52.870;8.798;2022-09-09T13:49:42;16.60;99.90
24384;DHT22;12504;52.870;8.798;2022-09-09T13:52:13;16.40;99.90
24384;DHT22;12504;52.870;8.798;2022-09-09T13:54:40;16.40;99.90
24384;DHT22;12504;52.870;8.798;2022-09-09T13:57:18;16.40;99.90
24384;DHT22;12504;52.870;8.798;2022-09-09T13:59:45;16.30;99.90
24384;DHT22;12504;52.870;8.798;2022-09-09T14:05:59;16.40;99.90
24384;DHT22;12504;52.870;8.798;2022-09-09T14:08:28;16.30;99.90
24384;DHT22;12504;52.870;8.798;2022-09-09T14:11:02;16.30;99.90
24384;DHT22;12504;52.870;8.798;2022-09-09T14:13:28;16.20;99.90
24384;DHT22;12504;52.870;8.798;2022-09-09T14:15:54;16.30;99.90
24384;DHT22;12504;52.870;8.798;2022-09-09T14:18:19;16.30;99.90
24384;DHT22;12504;52.870;8.798;2022-09-09T14:20:45;16.40;99.90
24384;DHT22;12504;52.870;8.798;2022-09-09T14:23:12;16.30;99.90
24384;DHT22;12504;52.870;8.798;2022-09-09T14:25:40;16.30;99.90
24384;DHT22;12504;52.870;8.798;2022-09-09T14:28:08;16.40;99.90
24384;DHT22;12504;52.870;8.798;2022-09-09T14:30:34;16.40;99.90
24384;DHT22;12504;52.870;8.798;2022-09-09T14:33:00;16.30;99.90
24384;DHT22;12504;52.870;8.798;2022-09-09T14:35:25;16.30;99.90
24384;DHT22;12504;52.870;8.798;2022-09-09T14:37:51;16.20;99.90
24384;DHT22;12504;52.870;8.798;2022-09-09T14:40:17;16.20;99.90
24384;DHT22;12504;52.870;8.798;2022-09-09T14:42:42;16.20;99.90
24384;DHT22;12504;52.870;8.798;2022-09-09T14:45:08;16.20;99.90
24384;DHT22;12504;52.870;8.798;2022-09-09T14:47:34;16.20;99.90
24384;DHT22;12504;52.870;8.798;2022-09-09T14:50:00;16.20;99.90
24384;DHT22;12504;52.870;8.798;2022-09-09T14:52:29;16.10;99.90
24384;DHT22;12504;52.870;8.798;2022-09-09T14:54:55;16.10;99.90
24384;DHT22;12504;52.870;8.798;2022-09-09T14:57:20;16.10;99.90
24384;DHT22;12504;52.870;8.798;2022-09-09T14:59:46;16.00;99.90
24384;DHT22;12504;52.870;8.798;2022-09-09T15:02:11;16.10;99.90
24384;DHT22;12504;52.870;8.798;2022-09-09T15:04:39;16.00;99.90
24384;DHT22;12504;52.870;8.798;2022-09-09T15:07:04;16.00;99.90
24384;DHT22;12504;52.870;8.798;2022-09-09T15:09:30;15.90;99.90
24384;DHT22;12504;52.870;8.798;2022-09-09T15:11:56;15.90;99.90
24384;DHT22;12504;52.870;8.798;2022-09-09T15:14:21;15.80;99.90
24384;DHT22;12504;52.870;8.798;2022-09-09T15:16:47;15.70;99.90
24384;DHT22;12504;52.870;8.798;2022-09-09T15:19:12;15.70;99.90
24384;DHT22;12504;52.870;8.798;2022-09-09T15:21:38;15.60;99.90
24384;DHT22;12504;52.870;8.798;2022-09-09T15:24:04;15.60;99.90
24384;DHT22;12504;52.870;8.798;2022-09-09T15:26:32;15.50;99.90
24384;DHT22;12504;52.870;8.798;2022-09-09T15:28:58;15.50;99.90
24384;DHT22;12504;52.870;8.798;2022-09-09T15:31:28;15.50;99.90
24384;DHT22;12504;52.870;8.798;2022-09-09T15:34:00;15.50;99.90
24384;DHT22;12504;52.870;8.798;2022-09-09T15:36:33;15.50;99.90
24384;DHT22;12504;52.870;8.798;2022-09-09T15:39:00;15.40;99.90
24384;DHT22;12504;52.870;8.798;2022-09-09T15:41:26;15.30;99.90
24384;DHT22;12504;52.870;8.798;2022-09-09T15:43:55;15.30;99.90
24384;DHT22;12504;52.870;8.798;2022-09-09T15:46:32;15.20;99.90
24384;DHT22;12504;52.870;8.798;2022-09-09T15:51:28;15.10;99.90
24384;DHT22;12504;52.870;8.798;2022-09-09T15:53:55;15.00;99.90
24384;DHT22;12504;52.870;8.798;2022-09-09T15:56:21;15.00;99.90
24384;DHT22;12504;52.870;8.798;2022-09-09T15:58:47;15.00;99.90
24384;DHT22;12504;52.870;8.798;2022-09-09T16:01:13;15.00;99.90
24384;DHT22;12504;52.870;8.798;2022-09-09T16:03:42;15.00;99.90
24384;DHT22;12504;52.870;8.798;2022-09-09T16:06:10;15.00;99.90
24384;DHT22;12504;52.870;8.798;2022-09-09T16:08:41;15.00;99.90
24384;DHT22;12504;52.870;8.798;2022-09-09T16:11:13;15.00;99.90
24384;DHT22;12504;52.870;8.798;2022-09-09T16:13:43;15.00;99.90
24384;DHT22;12504;52.870;8.798;2022-09-09T16:16:11;15.00;99.90
24384;DHT22;12504;52.870;8.798;2022-09-09T16:18:42;15.00;99.90
24384;DHT22;12504;52.870;8.798;2022-09-09T16:21:14;14.90;99.90
24384;DHT22;12504;52.870;8.798;2022-09-09T16:23:40;14.90;99.90
24384;DHT22;12504;52.870;8.798;2022-09-09T16:26:06;15.00;99.90
24384;DHT22;12504;52.870;8.798;2022-09-09T16:28:31;14.90;99.90
24384;DHT22;12504;52.870;8.798;2022-09-09T16:30:57;14.90;99.90
24384;DHT22;12504;52.870;8.798;2022-09-09T16:33:27;14.90;99.90
24384;DHT22;12504;52.870;8.798;2022-09-09T16:35:52;14.90;99.90
24384;DHT22;12504;52.870;8.798;2022-09-09T16:38:18;14.80;99.90
24384;DHT22;12504;52.870;8.798;2022-09-09T16:40:44;14.70;99.90
24384;DHT22;12504;52.870;8.798;2022-09-09T16:43:10;14.60;99.90
24384;DHT22;12504;52.870;8.798;2022-09-09T16:45:44;14.60;99.90
24384;DHT22;12504;52.870;8.798;2022-09-09T16:48:11;14.80;99.90
24384;DHT22;12504;52.870;8.798;2022-09-09T16:50:37;14.80;99.90
24384;DHT22;12504;52.870;8.798;2022-09-09T16:53:03;14.90;99.90
24384;DHT22;12504;52.870;8.798;2022-09-09T16:55:38;14.90;99.90
24384;DHT22;12504;52.870;8.798;2022-09-09T16:58:05;14.90;99.90
24384;DHT22;12504;52.870;8.798;2022-09-09T17:00:30;14.70;99.90
24384;DHT22;12504;52.870;8.798;2022-09-09T17:02:56;14.50;99.90
24384;DHT22;12504;52.870;8.798;2022-09-09T17:05:22;14.40;99.90
24384;DHT22;12504;52.870;8.798;2022-09-09T17:07:48;14.20;99.90
24384;DHT22;12504;52.870;8.798;2022-09-09T17:10:14;14.30;99.90
24384;DHT22;12504;52.870;8.798;2022-09-09T17:12:39;14.00;99.90
24384;DHT22;12504;52.870;8.798;2022-09-09T17:15:07;14.10;99.90
24384;DHT22;12504;52.870;8.798;2022-09-09T17:17:33;14.00;99.90
24384;DHT22;12504;52.870;8.798;2022-09-09T17:19:58;14.00;99.90
24384;DHT22;12504;52.870;8.798;2022-09-09T17:22:25;14.00;99.90
24384;DHT22;12504;52.870;8.798;2022-09-09T17:24:52;14.00;99.90
24384;DHT22;12504;52.870;8.798;2022-09-09T17:27:17;13.90;99.90
24384;DHT22;12504;52.870;8.798;2022-09-09T17:29:43;13.90;99.90
24384;DHT22;12504;52.870;8.798;2022-09-09T17:32:08;13.80;99.90
24384;DHT22;12504;52.870;8.798;2022-09-09T17:34:35;13.80;99.90
24384;DHT22;12504;52.870;8.798;2022-09-09T17:37:01;13.80;99.90
24384;DHT22;12504;52.870;8.798;2022-09-09T17:39:27;13.80;99.90
24384;DHT22;12504;52.870;8.798;2022-09-09T17:41:52;13.80;99.90
24384;DHT22;12504;52.870;8.798;2022-09-09T17:44:20;13.90;99.90
24384;DHT22;12504;52.870;8.798;2022-09-09T17:46:46;13.90;99.90
24384;DHT22;12504;52.870;8.798;2022-09-09T17:49:14;13.90;99.90
24384;DHT22;12504;52.870;8.798;2022-09-09T17:51:41;13.90;99.90
24384;DHT22;12504;52.870;8.798;2022-09-09T17:54:18;13.90;99.90
24384;DHT22;12504;52.870;8.798;2022-09-09T17:56:45;13.90;99.90
24384;DHT22;12504;52.870;8.798;2022-09-09T17:59:12;13.80;99.90
24384;DHT22;12504;52.870;8.798;2022-09-09T18:01:41;13.80;99.90
24384;DHT22;12504;52.870;8.798;2022-09-09T18:04:10;13.80;99.90
24384;DHT22;12504;52.870;8.798;2022-09-09T18:06:38;13.80;99.90
24384;DHT22;12504;52.870;8.798;2022-09-09T18:09:09;13.80;99.90
24384;DHT22;12504;52.870;8.798;2022-09-09T18:11:42;13.90;99.90
24384;DHT22;12504;52.870;8.798;2022-09-09T18:14:11;13.90;99.90
24384;DHT22;12504;52.870;8.798;2022-09-09T18:16:38;13.90;99.90
24384;DHT22;12504;52.870;8.798;2022-09-09T18:19:06;13.90;99.90